createdAt,value
2022-07-30T00:02:06.130Z,2.75
2022-07-30T00:04:34.106Z,2.70
2022-07-30T00:07:04.502Z,2.92
2022-07-30T00:09:34.297Z,2.90
2022-07-30T00:12:03.001Z,2.50
2022-07-30T00:14:31.533Z,2.80
2022-07-30T00:16:59.883Z,2.53
2022-07-30T00:19:28.298Z,2.90
2022-07-30T00:21:56.405Z,3.38
2022-07-30T00:24:25.739Z,3.60
2022-07-30T00:26:53.660Z,4.00
2022-07-30T00:29:21.778Z,3.23
2022-07-30T00:31:49.648Z,3.13
2022-07-30T00:34:17.623Z,3.60
2022-07-30T00:36:45.608Z,3.50
2022-07-30T00:39:13.550Z,3.65
2022-07-30T00:41:56.725Z,3.80
2022-07-30T00:44:24.922Z,3.30
2022-07-30T00:46:53.340Z,3.50
2022-07-30T00:49:21.343Z,3.45
2022-07-30T00:51:49.392Z,3.50
2022-07-30T00:54:17.721Z,3.87
2022-07-30T00:56:45.836Z,3.38
2022-07-30T00:59:15.265Z,3.22
2022-07-30T01:01:43.278Z,3.20
2022-07-30T01:04:12.417Z,3.70
2022-07-30T01:06:41.359Z,3.70
2022-07-30T01:09:09.421Z,3.35
2022-07-30T01:11:39.340Z,3.90
2022-07-30T01:14:09.083Z,3.40
2022-07-30T01:16:39.831Z,3.22
2022-07-30T01:19:32.444Z,3.35
2022-07-30T01:22:09.279Z,3.47
2022-07-30T01:24:42.727Z,3.78
2022-07-30T01:27:18.036Z,3.83
2022-07-30T01:29:49.158Z,3.50
2022-07-30T01:32:18.763Z,3.95
2022-07-30T01:34:47.924Z,3.80
2022-07-30T01:37:17.900Z,3.60
2022-07-30T01:39:49.561Z,3.60
2022-07-30T01:42:20.262Z,3.70
2022-07-30T01:44:50.053Z,3.50
2022-07-30T01:47:19.982Z,3.70
2022-07-30T01:49:49.440Z,3.63
2022-07-30T01:52:18.844Z,4.32
2022-07-30T01:54:49.648Z,4.00
2022-07-30T01:57:21.524Z,3.90
2022-07-30T01:59:53.115Z,3.50
2022-07-30T02:02:21.289Z,3.47
2022-07-30T02:04:49.316Z,3.83
2022-07-30T02:07:24.100Z,3.80
2022-07-30T02:09:57.112Z,3.42
2022-07-30T02:12:30.716Z,3.80
2022-07-30T02:15:08.383Z,4.30
2022-07-30T02:17:44.936Z,3.60
2022-07-30T02:20:15.403Z,4.10
2022-07-30T02:22:47.347Z,3.60
2022-07-30T02:25:19.633Z,3.97
2022-07-30T02:27:53.460Z,3.13
2022-07-30T02:30:24.301Z,4.00
2022-07-30T02:32:53.361Z,3.72
2022-07-30T02:35:24.966Z,3.95
2022-07-30T02:37:54.852Z,3.50
2022-07-30T02:40:24.356Z,4.10
2022-07-30T02:42:54.773Z,3.35
2022-07-30T02:45:25.038Z,4.13
2022-07-30T02:47:57.109Z,4.10
2022-07-30T02:50:26.081Z,3.88
2022-07-30T02:52:55.970Z,3.83
2022-07-30T02:55:25.481Z,4.03
2022-07-30T02:57:56.218Z,3.00
2022-07-30T03:00:26.104Z,3.67
2022-07-30T03:02:56.878Z,3.40
2022-07-30T03:05:25.735Z,3.03
2022-07-30T03:07:55.082Z,3.45
2022-07-30T03:10:23.754Z,3.33
2022-07-30T03:12:52.457Z,2.92
2022-07-30T03:15:22.037Z,3.30
2022-07-30T03:17:53.806Z,3.00
2022-07-30T03:20:29.132Z,3.05
2022-07-30T03:22:59.647Z,3.20
2022-07-30T03:25:29.397Z,2.80
2022-07-30T03:27:59.317Z,3.17
2022-07-30T03:30:30.137Z,3.28
2022-07-30T03:32:58.708Z,2.63
2022-07-30T03:35:27.480Z,3.10
2022-07-30T03:38:01.023Z,3.30
2022-07-30T03:40:29.693Z,2.80
2022-07-30T03:42:58.273Z,2.97
2022-07-30T03:45:28.065Z,2.47
2022-07-30T03:47:57.678Z,3.50
2022-07-30T03:50:25.776Z,2.80
2022-07-30T03:52:54.255Z,2.97
2022-07-30T03:55:24.139Z,2.50
2022-07-30T03:57:52.345Z,2.65
2022-07-30T04:00:20.342Z,3.10
2022-07-30T04:02:50.169Z,2.85
2022-07-30T04:05:18.413Z,2.50
2022-07-30T04:07:47.550Z,3.10
2022-07-30T04:10:16.851Z,2.70
2022-07-30T04:12:44.872Z,3.00
2022-07-30T04:16:31.727Z,2.60
2022-07-30T04:18:05.459Z,2.97
2022-07-30T04:20:40.812Z,2.80
2022-07-30T04:23:10.603Z,3.40
2022-07-30T04:25:39.317Z,2.80
2022-07-30T04:28:07.597Z,3.40
2022-07-30T04:30:35.766Z,3.00
2022-07-30T04:33:05.670Z,3.13
2022-07-30T04:35:51.995Z,3.20
2022-07-30T04:38:21.156Z,3.05
2022-07-30T04:40:49.758Z,2.50
2022-07-30T04:43:17.736Z,2.83
2022-07-30T04:45:45.679Z,3.53
2022-07-30T04:48:15.017Z,3.63
2022-07-30T04:50:46.779Z,3.20
2022-07-30T04:53:15.187Z,2.50
2022-07-30T04:55:46.585Z,2.70
2022-07-30T04:58:17.441Z,2.90
2022-07-30T05:00:47.034Z,2.90
2022-07-30T05:03:18.388Z,2.83
2022-07-30T05:05:48.013Z,3.55
2022-07-30T05:08:16.164Z,3.10
2022-07-30T05:10:44.888Z,3.15
2022-07-30T05:13:14.276Z,2.72
2022-07-30T05:15:44.676Z,3.30
2022-07-30T05:18:12.966Z,2.70
2022-07-30T05:20:42.439Z,2.88
2022-07-30T05:23:10.446Z,3.10
2022-07-30T05:25:38.371Z,2.70
2022-07-30T05:28:06.417Z,2.80
2022-07-30T05:30:34.337Z,3.20
2022-07-30T05:33:05.940Z,2.50
2022-07-30T05:35:43.773Z,2.75
2022-07-30T05:38:11.772Z,2.47
2022-07-30T05:40:39.665Z,2.33
2022-07-30T05:43:07.673Z,2.60
2022-07-30T05:45:35.670Z,2.70
2022-07-30T05:48:03.686Z,3.17
2022-07-30T05:50:31.761Z,2.53
2022-07-30T05:53:01.022Z,2.97
2022-07-30T05:55:29.058Z,2.63
2022-07-30T05:57:56.963Z,2.85
2022-07-30T06:00:24.937Z,3.05
2022-07-30T06:02:52.890Z,2.90
2022-07-30T06:05:20.967Z,2.70
2022-07-30T06:07:49.077Z,2.33
2022-07-30T06:10:18.436Z,2.55
2022-07-30T06:12:46.416Z,2.80
2022-07-30T06:15:14.391Z,2.40
2022-07-30T06:17:44.053Z,2.05
2022-07-30T06:20:21.370Z,2.42
2022-07-30T06:22:49.441Z,2.60
2022-07-30T06:25:18.914Z,2.40
2022-07-30T06:27:46.914Z,2.70
2022-07-30T06:30:15.041Z,2.03
2022-07-30T06:32:43.587Z,2.40
2022-07-30T06:35:11.527Z,2.50
2022-07-30T06:38:00.566Z,2.13
2022-07-30T06:40:28.865Z,1.90
2022-07-30T06:42:56.840Z,1.70
2022-07-30T06:45:24.813Z,1.98
2022-07-30T06:47:52.822Z,1.73
2022-07-30T06:50:20.748Z,1.98
2022-07-30T06:52:48.662Z,1.90
2022-07-30T06:55:16.587Z,2.00
2022-07-30T06:57:45.907Z,1.50
2022-07-30T07:00:14.721Z,1.65
2022-07-30T07:02:43.762Z,1.50
2022-07-30T07:05:12.167Z,1.40
2022-07-30T07:07:44.405Z,1.40
2022-07-30T07:10:20.724Z,1.87
2022-07-30T07:12:50.063Z,1.50
2022-07-30T07:15:17.960Z,1.50
2022-07-30T07:17:45.914Z,1.30
2022-07-30T07:20:13.950Z,1.30
2022-07-30T07:22:41.885Z,1.10
2022-07-30T07:25:10.539Z,1.60
2022-07-30T07:27:38.880Z,1.70
2022-07-30T07:30:09.905Z,1.40
2022-07-30T07:32:38.239Z,1.50
2022-07-30T07:35:07.091Z,1.33
2022-07-30T07:37:35.137Z,1.90
2022-07-30T07:40:03.247Z,2.13
2022-07-30T07:42:31.225Z,1.80
2022-07-30T07:44:59.236Z,1.52
2022-07-30T07:47:28.677Z,1.73
2022-07-30T07:49:56.978Z,1.63
2022-07-30T07:52:24.975Z,1.52
2022-07-30T07:54:52.937Z,1.50
2022-07-30T07:57:20.905Z,1.10
2022-07-30T07:59:48.934Z,1.67
2022-07-30T08:02:18.003Z,1.33
2022-07-30T08:04:47.607Z,1.30
2022-07-30T08:07:15.517Z,1.30
2022-07-30T08:09:44.712Z,1.50
2022-07-30T08:12:13.266Z,1.30
2022-07-30T08:14:41.283Z,1.40
2022-07-30T08:17:09.566Z,1.25
2022-07-30T08:19:37.694Z,1.00
2022-07-30T08:22:07.089Z,1.00
2022-07-30T08:24:35.084Z,1.10
2022-07-30T08:27:03.541Z,1.10
2022-07-30T08:29:31.758Z,1.30
2022-07-30T08:31:59.892Z,1.30
2022-07-30T08:34:28.742Z,1.20
2022-07-30T08:36:56.750Z,1.20
2022-07-30T08:39:26.128Z,1.30
2022-07-30T08:41:54.627Z,1.15
2022-07-30T08:44:23.575Z,1.30
2022-07-30T08:46:53.343Z,1.10
2022-07-30T08:49:21.786Z,1.40
2022-07-30T08:51:50.673Z,1.30
2022-07-30T08:54:19.989Z,1.20
2022-07-30T08:56:50.394Z,1.00
2022-07-30T08:59:18.724Z,1.50
2022-07-30T09:01:46.742Z,1.20
2022-07-30T09:04:15.366Z,1.13
2022-07-30T09:06:43.359Z,1.10
2022-07-30T09:09:11.313Z,1.20
2022-07-30T09:11:39.218Z,1.20
2022-07-30T09:14:14.097Z,1.60
2022-07-30T09:16:43.152Z,1.50
2022-07-30T09:19:17.207Z,1.10
2022-07-30T09:21:56.459Z,1.30
2022-07-30T09:24:24.461Z,1.20
2022-07-30T09:26:58.267Z,1.40
2022-07-30T09:29:29.175Z,1.48
2022-07-30T09:31:59.054Z,1.35
2022-07-30T09:34:31.973Z,1.40
2022-07-30T09:37:02.842Z,1.33
2022-07-30T09:39:35.121Z,1.10
2022-07-30T09:42:04.572Z,1.27
2022-07-30T09:44:34.148Z,1.17
2022-07-30T09:47:02.891Z,1.20
2022-07-30T09:49:31.600Z,1.50
2022-07-30T09:51:59.579Z,1.00
2022-07-30T09:54:51.344Z,0.90
2022-07-30T09:57:26.370Z,1.30
2022-07-30T09:59:58.091Z,1.20
2022-07-30T10:02:32.441Z,1.10
2022-07-30T10:05:14.188Z,1.10
2022-07-30T10:07:51.296Z,1.10
2022-07-30T10:10:21.750Z,1.20
2022-07-30T10:12:58.971Z,1.20
2022-07-30T10:15:32.523Z,1.07
2022-07-30T10:18:01.784Z,1.20
2022-07-30T10:20:30.115Z,1.17
2022-07-30T10:23:07.786Z,1.30
2022-07-30T10:25:49.781Z,1.20
2022-07-30T10:28:24.046Z,1.00
2022-07-30T10:30:54.470Z,1.10
2022-07-30T10:33:36.674Z,1.10
2022-07-30T10:36:11.301Z,1.02
2022-07-30T10:38:42.975Z,1.10
2022-07-30T10:41:22.114Z,1.15
2022-07-30T10:44:30.563Z,1.30
2022-07-30T10:47:07.218Z,1.30
2022-07-30T10:49:41.662Z,0.90
2022-07-30T10:52:12.257Z,1.00
2022-07-30T10:54:43.101Z,1.10
2022-07-30T10:57:15.026Z,1.10
2022-07-30T11:00:11.124Z,1.30
2022-07-30T11:02:41.631Z,1.30
2022-07-30T11:05:27.218Z,1.10
2022-07-30T11:08:36.961Z,1.00
2022-07-30T11:12:01.821Z,4.70
2022-07-30T11:14:56.593Z,1.60
2022-07-30T11:17:25.043Z,1.42
2022-07-30T11:22:51.127Z,1.33
2022-07-30T11:25:51.447Z,1.30
2022-07-30T11:28:40.821Z,1.10
2022-07-30T11:31:36.997Z,1.20
2022-07-30T11:34:29.846Z,1.13
2022-07-30T11:37:18.864Z,1.20
2022-07-30T11:40:12.069Z,1.30
2022-07-30T11:42:42.538Z,1.20
2022-07-30T11:45:26.850Z,1.30
2022-07-30T11:47:57.773Z,1.10
2022-07-30T11:50:28.454Z,1.70
2022-07-30T11:52:58.049Z,1.08
2022-07-30T11:55:30.263Z,1.20
2022-07-30T11:57:59.855Z,1.20
2022-07-30T12:00:35.595Z,1.40
2022-07-30T12:03:09.720Z,1.20
2022-07-30T12:05:37.700Z,1.40
2022-07-30T12:08:06.362Z,1.10
2022-07-30T12:10:39.069Z,1.30
2022-07-30T12:13:12.315Z,1.33
2022-07-30T12:15:42.252Z,1.20
2022-07-30T12:18:25.898Z,1.50
2022-07-30T12:20:57.517Z,1.20
2022-07-30T12:23:26.258Z,1.00
2022-07-30T12:25:55.962Z,1.20
2022-07-30T12:28:25.641Z,1.13
2022-07-30T12:30:55.220Z,1.20
2022-07-30T12:33:24.254Z,1.00
2022-07-30T12:35:53.787Z,1.20
2022-07-30T12:38:23.134Z,1.20
2022-07-30T12:41:01.452Z,1.30
2022-07-30T12:43:51.186Z,1.00
2022-07-30T12:46:22.460Z,1.10
2022-07-30T12:49:16.675Z,1.10
2022-07-30T12:51:57.449Z,1.00
2022-07-30T12:54:29.033Z,1.20
2022-07-30T12:57:00.539Z,1.20
2022-07-30T12:59:29.530Z,1.10
2022-07-30T13:02:00.208Z,1.13
2022-07-30T13:04:29.334Z,1.30
2022-07-30T13:07:11.480Z,1.00
2022-07-30T13:09:40.278Z,1.10
2022-07-30T13:12:14.332Z,1.33
2022-07-30T13:14:42.331Z,1.23
2022-07-30T13:17:10.936Z,1.20
2022-07-30T13:19:39.140Z,1.40
2022-07-30T13:22:07.106Z,1.10
2022-07-30T13:24:35.069Z,1.70
2022-07-30T13:27:03.549Z,1.07
2022-07-30T13:29:33.154Z,1.70
2022-07-30T13:32:01.121Z,1.27
2022-07-30T13:34:29.063Z,1.40
2022-07-30T13:36:57.149Z,1.40
2022-07-30T13:39:25.184Z,1.40
2022-07-30T13:41:53.131Z,1.40
2022-07-30T13:44:21.155Z,1.60
2022-07-30T13:46:50.455Z,1.30
2022-07-30T13:49:18.431Z,1.50
2022-07-30T13:51:46.360Z,1.60
2022-07-30T13:54:16.490Z,1.50
2022-07-30T13:56:44.395Z,1.50
2022-07-30T13:59:12.380Z,1.40
2022-07-30T14:01:40.399Z,1.60
2022-07-30T14:04:09.776Z,1.42
2022-07-30T14:06:37.671Z,1.60
2022-07-30T14:09:05.798Z,1.52
2022-07-30T14:11:33.775Z,1.35
2022-07-30T14:14:02.031Z,1.50
2022-07-30T14:16:44.606Z,2.05
2022-07-30T14:19:23.458Z,1.60
2022-07-30T14:21:53.557Z,1.50
2022-07-30T14:24:22.073Z,2.00
2022-07-30T14:26:57.706Z,1.52
2022-07-30T14:29:26.515Z,1.40
2022-07-30T14:31:54.706Z,1.23
2022-07-30T14:34:24.002Z,1.50
2022-07-30T14:36:51.941Z,1.40
2022-07-30T14:39:20.646Z,1.60
2022-07-30T14:41:48.593Z,1.50
2022-07-30T14:44:20.390Z,1.60
2022-07-30T14:46:51.525Z,2.03
2022-07-30T14:49:24.331Z,1.70
2022-07-30T14:51:52.719Z,1.70
2022-07-30T14:54:20.892Z,1.60
2022-07-30T14:56:48.906Z,1.50
2022-07-30T14:59:17.029Z,1.77
2022-07-30T15:01:45.069Z,1.80
2022-07-30T15:04:13.102Z,1.70
2022-07-30T15:06:42.503Z,1.70
2022-07-30T15:09:10.521Z,1.70
2022-07-30T15:12:07.818Z,1.63
2022-07-30T15:14:28.430Z,1.60
2022-07-30T15:17:03.422Z,1.60
2022-07-30T15:19:32.588Z,1.60
2022-07-30T15:22:03.242Z,1.70
2022-07-30T15:24:31.966Z,1.80
2022-07-30T15:27:00.193Z,1.40
2022-07-30T15:29:30.095Z,1.30
2022-07-30T15:32:00.023Z,1.30
2022-07-30T15:34:28.779Z,1.80
2022-07-30T15:36:56.688Z,1.80
2022-07-30T15:39:28.316Z,1.80
2022-07-30T15:41:57.130Z,1.60
2022-07-30T15:44:25.305Z,1.70
2022-07-30T15:46:53.269Z,1.60
2022-07-30T15:49:21.587Z,1.80
2022-07-30T15:51:57.335Z,1.65
2022-07-30T15:54:26.907Z,1.65
2022-07-30T15:57:00.709Z,1.90
2022-07-30T15:59:29.913Z,1.80
2022-07-30T16:01:57.967Z,2.15
2022-07-30T16:04:31.817Z,1.80
2022-07-30T16:07:00.652Z,1.60
2022-07-30T16:09:30.001Z,1.60
2022-07-30T16:11:58.394Z,1.90
2022-07-30T16:14:26.696Z,2.00
2022-07-30T16:16:54.750Z,1.67
2022-07-30T16:19:22.794Z,1.67
2022-07-30T16:21:50.993Z,2.20
2022-07-30T16:24:19.271Z,1.85
2022-07-30T16:26:48.843Z,2.00
2022-07-30T16:29:17.804Z,1.80
2022-07-30T16:31:45.677Z,1.80
2022-07-30T16:34:13.745Z,1.80
2022-07-30T16:36:41.757Z,1.50
2022-07-30T16:39:09.842Z,1.70
2022-07-30T16:41:38.162Z,1.60
2022-07-30T16:44:07.608Z,1.80
2022-07-30T16:46:36.924Z,1.65
2022-07-30T16:49:05.085Z,1.70
2022-07-30T16:51:33.462Z,2.00
2022-07-30T16:54:01.485Z,1.80
2022-07-30T16:56:29.519Z,1.60
2022-07-30T16:58:57.710Z,1.77
2022-07-30T17:01:28.713Z,1.55
2022-07-30T17:03:56.673Z,1.50
2022-07-30T17:06:24.736Z,1.60
2022-07-30T17:08:52.670Z,2.20
2022-07-30T17:11:47.729Z,1.90
2022-07-30T17:14:08.598Z,1.70
2022-07-30T17:16:40.845Z,1.90
2022-07-30T17:19:09.352Z,1.60
2022-07-30T17:21:38.070Z,1.70
2022-07-30T17:24:11.110Z,1.60
2022-07-30T17:26:41.681Z,2.00
2022-07-30T17:29:13.924Z,1.70
2022-07-30T17:31:44.889Z,1.40
2022-07-30T17:34:20.149Z,1.70
2022-07-30T17:36:52.510Z,1.27
2022-07-30T17:40:26.411Z,1.70
2022-07-30T17:42:10.115Z,1.60
2022-07-30T17:44:39.210Z,1.52
2022-07-30T17:47:14.570Z,1.40
2022-07-30T17:49:43.305Z,1.48
2022-07-30T17:52:11.492Z,1.65
2022-07-30T17:54:39.521Z,1.50
2022-07-30T17:57:10.599Z,1.45
2022-07-30T17:59:38.536Z,1.60
2022-07-30T18:02:08.235Z,1.60
2022-07-30T18:04:38.408Z,1.50
2022-07-30T18:07:06.602Z,1.20
2022-07-30T18:09:39.625Z,1.40
2022-07-30T18:12:08.816Z,1.60
2022-07-30T18:14:37.269Z,1.90
2022-07-30T18:17:05.436Z,1.90
2022-07-30T18:19:34.768Z,2.00
2022-07-30T18:22:04.360Z,1.60
2022-07-30T18:24:32.732Z,1.70
2022-07-30T18:27:00.715Z,1.60
2022-07-30T18:29:28.747Z,1.73
2022-07-30T18:31:56.854Z,2.00
2022-07-30T18:34:24.803Z,2.00
2022-07-30T18:36:54.143Z,1.90
2022-07-30T18:39:22.296Z,2.47
2022-07-30T18:41:50.214Z,1.60
2022-07-30T18:44:18.154Z,1.85
2022-07-30T18:46:49.013Z,1.88
2022-07-30T18:49:35.551Z,1.70
2022-07-30T18:52:07.443Z,1.88
2022-07-30T18:54:36.199Z,1.83
2022-07-30T18:57:04.725Z,1.77
2022-07-30T18:59:32.895Z,1.92
2022-07-30T19:02:01.438Z,2.00
2022-07-30T19:04:33.941Z,2.00
2022-07-30T19:07:02.160Z,2.30
2022-07-30T19:09:31.605Z,1.92
2022-07-30T19:11:59.867Z,2.10
2022-07-30T19:14:27.994Z,1.80
2022-07-30T19:16:59.227Z,1.63
2022-07-30T19:19:28.359Z,1.90
2022-07-30T19:21:56.930Z,1.80
2022-07-30T19:24:27.077Z,1.85
2022-07-30T19:26:57.506Z,1.97
2022-07-30T19:29:25.655Z,1.70
2022-07-30T19:31:53.650Z,1.70
2022-07-30T19:34:21.578Z,1.75
2022-07-30T19:36:49.621Z,1.73
2022-07-30T19:39:21.267Z,1.80
2022-07-30T19:41:50.970Z,2.10
2022-07-30T19:44:20.505Z,2.20
2022-07-30T19:46:51.554Z,1.85
2022-07-30T19:49:20.146Z,2.00
2022-07-30T19:54:38.144Z,2.20
2022-07-30T19:57:06.266Z,2.08
2022-07-30T19:59:45.924Z,2.00
2022-07-30T20:02:23.535Z,1.88
2022-07-30T20:04:51.690Z,1.77
2022-07-30T20:07:19.638Z,1.90
2022-07-30T20:09:49.155Z,2.00
2022-07-30T20:12:17.308Z,1.90
2022-07-30T20:14:46.598Z,2.10
2022-07-30T20:17:15.750Z,2.10
2022-07-30T20:19:47.935Z,2.15
2022-07-30T20:22:16.906Z,1.90
2022-07-30T20:24:45.263Z,2.10
2022-07-30T20:27:35.835Z,2.15
2022-07-30T20:30:02.611Z,2.20
2022-07-30T20:32:30.737Z,2.50
2022-07-30T20:34:58.706Z,2.28
2022-07-30T20:37:29.160Z,2.47
2022-07-30T20:39:57.409Z,2.33
2022-07-30T20:42:25.645Z,2.20
2022-07-30T20:44:56.750Z,2.60
2022-07-30T20:47:34.398Z,2.30
2022-07-30T20:50:09.517Z,2.80
2022-07-30T20:52:39.276Z,2.40
2022-07-30T20:55:08.428Z,2.60
2022-07-30T20:57:56.849Z,2.53
2022-07-30T21:00:25.480Z,2.70
2022-07-30T21:02:54.749Z,2.92
2022-07-30T21:05:22.758Z,2.50
2022-07-30T21:07:58.140Z,2.42
2022-07-30T21:10:26.123Z,3.30
2022-07-30T21:12:58.636Z,2.92
2022-07-30T21:15:32.762Z,2.80
2022-07-30T21:18:03.026Z,2.70
2022-07-30T21:20:31.445Z,2.22
2022-07-30T21:23:05.110Z,2.20
2022-07-30T21:25:33.812Z,2.97
2022-07-30T21:28:02.817Z,2.90
2022-07-30T21:30:32.727Z,2.67
2022-07-30T21:33:02.314Z,2.70
2022-07-30T21:35:31.787Z,2.60
2022-07-30T21:38:00.351Z,2.70
2022-07-30T21:40:31.167Z,2.50
2022-07-30T21:42:59.193Z,2.50
2022-07-30T21:45:38.736Z,2.75
2022-07-30T21:48:10.879Z,2.10
2022-07-30T21:50:39.945Z,2.30
2022-07-30T21:53:08.226Z,2.30
2022-07-30T21:55:52.407Z,2.83
2022-07-30T21:58:25.945Z,2.25
2022-07-30T22:01:04.097Z,1.60
2022-07-30T22:04:03.333Z,1.90
2022-07-30T22:06:36.480Z,2.00
2022-07-30T22:09:18.775Z,1.77
2022-07-30T22:11:56.022Z,2.15
2022-07-30T22:14:25.601Z,1.58
2022-07-30T22:16:53.837Z,1.67
2022-07-30T22:19:25.943Z,1.60
2022-07-30T22:21:54.401Z,1.30
2022-07-30T22:24:29.827Z,1.50
2022-07-30T22:27:01.628Z,1.40
2022-07-30T22:29:38.162Z,1.30
2022-07-30T22:32:08.553Z,1.23
2022-07-30T22:34:37.894Z,1.60
2022-07-30T22:37:09.151Z,1.10
2022-07-30T22:39:51.569Z,1.10
2022-07-30T22:42:20.938Z,1.20
2022-07-30T22:44:52.700Z,1.50
2022-07-30T22:47:50.837Z,1.20
2022-07-30T22:50:11.619Z,1.25
2022-07-30T22:52:40.240Z,1.10
2022-07-30T22:55:22.135Z,1.05
2022-07-30T22:57:50.677Z,1.25
2022-07-30T23:00:27.455Z,1.20
2022-07-30T23:02:57.379Z,1.15
2022-07-30T23:05:26.744Z,1.40
2022-07-30T23:07:55.311Z,1.50
2022-07-30T23:10:24.869Z,1.58
2022-07-30T23:12:17.092Z,1.75
2022-07-30T23:12:56.056Z,1.80
2022-07-30T23:15:24.545Z,1.27
2022-07-30T23:17:53.137Z,1.50
2022-07-30T23:20:22.384Z,1.40
2022-07-30T23:22:51.695Z,1.30
2022-07-30T23:25:19.689Z,1.50
2022-07-30T23:27:47.688Z,1.20
2022-07-30T23:30:15.823Z,1.20
2022-07-30T23:32:43.806Z,1.50
2022-07-30T23:35:12.035Z,1.70
2022-07-30T23:37:48.342Z,1.23
2022-07-30T23:40:19.367Z,1.58
2022-07-30T23:42:47.545Z,1.67
2022-07-30T23:45:15.735Z,1.60
2022-07-30T23:48:01.785Z,1.60
2022-07-30T23:50:31.901Z,1.55
2022-07-30T23:53:00.504Z,1.63
2022-07-30T23:55:30.236Z,1.40
2022-07-30T23:57:58.368Z,1.30
